createdAt,value
2023-05-10T00:04:58.395Z,119442.44
2023-05-10T00:10:30.242Z,119068.38
2023-05-10T00:16:00.355Z,119139.81
2023-05-10T00:18:47.782Z,119200.75
2023-05-10T00:32:16.682Z,119144.00
2023-05-10T00:42:08.268Z,119263.78
2023-05-10T01:32:14.746Z,118999.00
2023-05-10T01:38:26.313Z,119053.66
2023-05-10T01:41:23.492Z,119013.72
2023-05-10T01:47:27.562Z,118935.97
2023-05-10T01:50:15.093Z,118965.41
2023-05-10T01:53:01.640Z,118902.34
2023-05-10T01:55:29.757Z,118706.94
2023-05-10T01:58:04.627Z,118761.56
2023-05-10T02:00:39.759Z,118664.91
2023-05-10T02:03:07.733Z,118652.31
2023-05-10T02:08:21.243Z,118725.84
2023-05-10T02:10:47.993Z,118822.50
2023-05-10T02:13:18.859Z,118740.56
2023-05-10T02:15:45.524Z,118709.03
2023-05-10T02:18:12.344Z,118765.78
2023-05-10T02:20:38.678Z,118767.88
2023-05-10T02:23:05.223Z,118740.56
2023-05-10T02:25:31.610Z,118694.34
2023-05-10T02:28:00.000Z,118664.91
2023-05-10T02:30:28.488Z,118320.34
2023-05-10T02:32:55.206Z,118347.66
2023-05-10T02:35:22.427Z,117929.56
2023-05-10T02:37:50.128Z,118051.41
2023-05-10T02:40:17.128Z,118574.56
2023-05-10T02:42:43.974Z,118614.50
2023-05-10T02:45:13.385Z,118238.41
2023-05-10T02:47:40.275Z,118173.25
2023-05-10T02:50:07.095Z,118463.22
2023-05-10T02:52:38.534Z,118332.94
2023-05-10T02:55:05.452Z,118137.56
2023-05-10T02:57:35.603Z,117851.84
2023-05-10T03:00:02.389Z,117895.94
2023-05-10T03:02:31.423Z,118009.41
2023-05-10T03:04:58.283Z,117948.47
2023-05-10T03:07:24.694Z,117837.13
2023-05-10T03:09:51.141Z,117853.94
2023-05-10T03:12:20.815Z,117414.91
2023-05-10T03:14:55.274Z,117914.84
2023-05-10T03:17:26.823Z,118064.03
2023-05-10T03:19:57.694Z,117732.09
2023-05-10T03:22:32.265Z,117721.59
2023-05-10T03:24:58.996Z,117843.44
2023-05-10T03:27:26.489Z,117866.53
2023-05-10T03:29:53.855Z,117898.06
2023-05-10T03:32:20.512Z,117780.41
2023-05-10T03:34:46.910Z,118118.63
2023-05-10T03:37:14.846Z,118442.19
2023-05-10T03:39:41.646Z,117811.94
2023-05-10T03:42:08.636Z,117564.03
2023-05-10T03:44:34.987Z,117511.53
2023-05-10T03:47:01.802Z,117396.00
2023-05-10T03:49:28.355Z,117505.22
2023-05-10T03:51:54.830Z,117465.31
2023-05-10T03:54:21.530Z,117547.25
2023-05-10T03:56:49.010Z,117522.03
2023-05-10T03:59:15.584Z,117589.25
2023-05-10T04:01:42.215Z,117627.06
2023-05-10T04:04:09.823Z,117389.69
2023-05-10T04:06:37.379Z,117496.81
2023-05-10T04:09:06.840Z,117498.94
2023-05-10T04:11:34.074Z,117330.88
2023-05-10T04:14:01.480Z,117232.16
2023-05-10T04:16:27.988Z,117412.81
2023-05-10T04:18:55.908Z,117505.22
2023-05-10T04:21:22.861Z,117482.13
2023-05-10T04:23:49.553Z,117097.72
2023-05-10T04:26:29.978Z,117059.94
2023-05-10T04:29:08.625Z,117412.81
2023-05-10T04:31:37.206Z,117267.88
2023-05-10T04:34:04.262Z,117234.25
2023-05-10T04:36:30.892Z,117459.00
2023-05-10T04:38:57.917Z,117484.22
2023-05-10T04:41:24.341Z,117234.25
2023-05-10T04:43:50.836Z,117482.13
2023-05-10T04:46:17.675Z,117429.59
2023-05-10T04:48:44.212Z,117093.53
2023-05-10T04:51:10.530Z,117106.13
2023-05-10T04:53:36.893Z,117095.63
2023-05-10T04:56:03.318Z,117055.72
2023-05-10T04:58:29.958Z,117364.50
2023-05-10T05:00:56.649Z,117211.16
2023-05-10T05:03:23.423Z,117433.81
2023-05-10T05:05:50.139Z,117660.66
2023-05-10T05:08:16.603Z,117480.03
2023-05-10T05:10:43.162Z,117692.19
2023-05-10T05:13:09.570Z,118156.47
2023-05-10T05:15:35.984Z,118467.41
2023-05-10T05:18:02.363Z,118625.00
2023-05-10T05:20:28.714Z,118700.63
2023-05-10T05:22:55.287Z,118671.22
2023-05-10T05:25:21.702Z,118677.53
2023-05-10T05:27:48.076Z,118816.19
2023-05-10T05:30:14.546Z,118730.06
2023-05-10T05:32:41.006Z,118492.63
2023-05-10T05:35:07.662Z,118490.53
2023-05-10T05:37:34.016Z,119194.44
2023-05-10T05:40:02.322Z,119713.53
2023-05-10T05:42:28.675Z,120041.41
2023-05-10T05:44:55.049Z,120041.41
2023-05-10T05:47:21.803Z,120041.41
2023-05-10T05:49:48.149Z,120041.41
2023-05-10T05:52:14.453Z,120041.41
2023-05-10T05:54:40.805Z,120041.41
2023-05-10T05:57:07.223Z,120041.41
2023-05-10T05:59:33.517Z,120041.41
2023-05-10T06:01:59.899Z,120041.41
2023-05-10T06:04:26.523Z,120041.41
2023-05-10T06:06:52.996Z,120041.41
2023-05-10T06:09:19.490Z,120041.41
2023-05-10T06:11:45.875Z,120041.41
2023-05-10T06:14:12.485Z,120041.41
2023-05-10T06:16:38.816Z,120041.41
2023-05-10T06:19:05.218Z,120041.41
2023-05-10T06:21:31.631Z,120041.41
2023-05-10T06:23:57.984Z,120041.41
2023-05-10T06:26:24.459Z,120041.41
2023-05-10T06:28:50.765Z,120039.31
2023-05-10T06:31:17.330Z,118156.47
2023-05-10T06:33:43.833Z,117618.66
2023-05-10T06:36:10.274Z,118156.47
2023-05-10T06:38:36.618Z,119501.28
2023-05-10T06:41:02.966Z,120039.31
2023-05-10T06:43:29.740Z,120041.41
2023-05-10T06:45:56.203Z,120041.41
2023-05-10T06:48:22.702Z,120041.41
2023-05-10T06:50:49.051Z,120041.41
2023-05-10T06:53:15.399Z,120041.41
2023-05-10T06:55:41.835Z,120041.41
2023-05-10T06:58:08.171Z,120041.41
2023-05-10T07:00:34.626Z,120041.41
2023-05-10T07:03:01.135Z,120041.41
2023-05-10T07:05:28.871Z,120041.41
2023-05-10T07:07:55.462Z,120041.41
2023-05-10T07:10:21.776Z,120041.41
2023-05-10T07:12:48.263Z,120041.41
2023-05-10T07:15:14.740Z,120039.31
2023-05-10T07:17:43.203Z,120039.31
2023-05-10T07:20:11.355Z,118425.38
2023-05-10T07:22:37.868Z,116005.69
2023-05-10T07:25:04.418Z,116274.47
2023-05-10T07:27:30.906Z,116543.28
2023-05-10T07:29:57.525Z,116812.09
2023-05-10T07:32:24.124Z,116274.47
2023-05-10T07:34:50.496Z,116543.28
2023-05-10T07:37:16.823Z,117349.78
2023-05-10T07:39:43.228Z,118694.34
2023-05-10T07:42:09.810Z,118963.28
2023-05-10T07:44:36.589Z,119232.28
2023-05-10T07:47:02.934Z,119501.28
2023-05-10T07:49:29.238Z,119501.28
2023-05-10T07:51:55.725Z,119232.28
2023-05-10T07:54:22.520Z,117349.78
2023-05-10T07:56:49.189Z,116543.28
2023-05-10T07:59:16.177Z,114930.72
2023-05-10T08:01:42.859Z,113856.03
2023-05-10T08:04:09.838Z,111976.03
2023-05-10T08:06:36.257Z,113856.03
2023-05-10T08:09:03.291Z,113856.03
2023-05-10T08:11:29.735Z,115199.44
2023-05-10T08:13:56.101Z,115199.44
2023-05-10T08:16:22.623Z,111707.53
2023-05-10T08:18:50.101Z,110365.28
2023-05-10T08:21:16.790Z,109560.13
2023-05-10T08:23:44.707Z,107950.34
2023-05-10T08:26:11.623Z,107145.69
2023-05-10T08:28:38.002Z,101785.34
2023-05-10T08:31:04.899Z,101249.72
2023-05-10T08:33:31.247Z,98304.94
2023-05-10T08:35:58.017Z,96432.09
2023-05-10T08:38:24.775Z,90284.63
2023-05-10T08:40:56.203Z,83346.53
2023-05-10T08:43:22.516Z,81214.16
2023-05-10T08:45:49.024Z,79349.25
2023-05-10T08:48:15.523Z,79082.91
2023-05-10T08:50:42.089Z,76538.94
2023-05-10T08:53:12.251Z,72787.34
2023-05-10T08:55:39.677Z,82280.22
2023-05-10T08:58:06.409Z,83079.94
2023-05-10T09:00:32.801Z,81214.16
2023-05-10T09:02:59.495Z,81214.16
2023-05-10T09:05:25.936Z,79882.00
2023-05-10T09:07:52.414Z,72857.97
2023-05-10T09:10:18.847Z,64094.22
2023-05-10T09:12:46.257Z,63397.78
2023-05-10T09:15:12.716Z,67899.94
2023-05-10T09:17:39.562Z,73098.97
2023-05-10T09:20:06.424Z,64533.72
2023-05-10T09:22:32.742Z,65734.28
2023-05-10T09:25:09.125Z,64494.31
2023-05-10T09:27:35.993Z,73556.06
2023-05-10T09:30:02.880Z,74464.22
2023-05-10T09:32:41.966Z,72336.53
2023-05-10T09:35:18.424Z,76027.44
2023-05-10T09:37:45.632Z,79615.59
2023-05-10T09:40:15.067Z,76902.88
2023-05-10T09:42:51.977Z,75592.91
2023-05-10T09:45:18.558Z,73213.25
2023-05-10T09:47:45.008Z,71084.16
2023-05-10T09:50:11.377Z,69753.28
2023-05-10T09:52:53.483Z,76058.63
2023-05-10T09:55:38.617Z,81214.16
2023-05-10T09:58:07.784Z,82813.34
2023-05-10T10:00:37.623Z,85746.84
2023-05-10T10:03:04.313Z,86814.09
2023-05-10T10:05:34.565Z,90284.63
2023-05-10T10:08:01.488Z,95094.91
2023-05-10T10:10:28.157Z,93490.84
2023-05-10T10:12:55.032Z,96967.13
2023-05-10T10:15:21.935Z,94560.16
2023-05-10T10:17:49.382Z,92956.28
2023-05-10T10:20:16.164Z,92154.59
2023-05-10T10:22:44.462Z,92421.81
2023-05-10T10:25:15.461Z,94560.16
2023-05-10T10:27:45.126Z,94292.78
2023-05-10T10:30:20.807Z,95094.91
2023-05-10T10:33:13.552Z,93490.84
2023-05-10T10:35:52.283Z,94025.47
2023-05-10T10:38:18.674Z,92421.81
2023-05-10T10:40:44.982Z,92689.03
2023-05-10T10:43:27.716Z,90017.53
2023-05-10T10:46:10.380Z,89483.47
2023-05-10T10:48:36.888Z,87614.72
2023-05-10T10:51:03.215Z,87881.63
2023-05-10T10:53:32.329Z,87614.72
2023-05-10T10:56:10.252Z,92154.59
2023-05-10T10:58:39.238Z,99375.53
2023-05-10T11:01:15.915Z,102856.84
2023-05-10T11:03:42.802Z,105000.69
2023-05-10T11:06:09.615Z,103660.66
2023-05-10T11:08:42.806Z,104732.66
2023-05-10T11:11:09.672Z,103124.78
2023-05-10T11:13:38.939Z,96699.59
2023-05-10T11:16:12.532Z,92154.59
2023-05-10T11:18:38.932Z,88682.47
2023-05-10T11:21:09.103Z,93223.56
2023-05-10T11:23:47.657Z,105536.84
2023-05-10T11:26:14.332Z,108486.88
2023-05-10T11:28:47.464Z,112781.63
2023-05-10T11:31:17.545Z,113318.81
2023-05-10T11:33:47.584Z,113318.81
2023-05-10T11:36:20.749Z,113587.41
2023-05-10T11:38:47.434Z,112781.63
2023-05-10T11:41:13.821Z,109560.13
2023-05-10T11:43:40.420Z,109560.13
2023-05-10T11:46:08.614Z,106877.50
2023-05-10T11:48:35.335Z,104464.63
2023-05-10T11:51:02.822Z,103660.66
2023-05-10T11:53:30.969Z,102856.84
2023-05-10T11:56:03.219Z,104464.63
2023-05-10T11:58:29.531Z,101517.53
2023-05-10T12:00:55.823Z,99107.84
2023-05-10T12:03:22.208Z,97769.75
2023-05-10T12:05:48.603Z,95629.72
2023-05-10T12:08:15.726Z,94292.78
2023-05-10T12:10:42.308Z,97502.19
2023-05-10T12:13:12.891Z,94025.47
2023-05-10T12:15:39.177Z,92421.81
2023-05-10T12:18:06.361Z,84946.56
2023-05-10T12:20:32.688Z,81214.16
2023-05-10T12:23:00.732Z,82280.22
2023-05-10T12:25:30.547Z,79349.25
2023-05-10T12:27:58.336Z,82280.22
2023-05-10T12:30:25.068Z,77218.97
2023-05-10T12:32:51.728Z,76366.34
2023-05-10T12:35:18.285Z,78816.56
2023-05-10T12:37:44.607Z,69998.25
2023-05-10T12:40:14.467Z,69390.00
2023-05-10T12:42:41.131Z,61984.50
2023-05-10T12:45:07.805Z,58054.06
2023-05-10T12:47:34.236Z,57000.66
2023-05-10T12:50:01.086Z,57580.09
2023-05-10T12:52:27.677Z,56938.59
2023-05-10T12:54:54.096Z,55682.75
2023-05-10T12:57:23.661Z,55399.38
2023-05-10T12:59:50.001Z,54816.13
2023-05-10T13:02:16.599Z,54874.03
2023-05-10T13:04:43.085Z,54501.78
2023-05-10T13:07:09.790Z,54359.09
2023-05-10T13:09:36.209Z,53968.28
2023-05-10T13:12:02.812Z,53920.72
2023-05-10T13:14:29.117Z,53984.81
2023-05-10T13:16:55.673Z,53902.13
2023-05-10T13:19:22.064Z,53790.47
2023-05-10T13:21:48.436Z,53811.13
2023-05-10T13:24:14.860Z,53757.38
2023-05-10T13:26:41.645Z,53802.88
2023-05-10T13:29:08.086Z,53833.88
2023-05-10T13:31:34.684Z,53802.88
2023-05-10T13:34:01.087Z,53786.31
2023-05-10T13:36:27.424Z,53819.41
2023-05-10T13:38:53.894Z,53802.88
2023-05-10T13:41:20.270Z,53807.00
2023-05-10T13:43:46.620Z,53807.00
2023-05-10T13:46:13.240Z,53831.81
2023-05-10T13:48:39.656Z,53885.56
2023-05-10T13:51:06.032Z,53902.13
2023-05-10T13:53:32.374Z,53891.78
2023-05-10T13:55:59.046Z,53889.72
2023-05-10T13:58:25.353Z,53877.31
2023-05-10T14:00:51.668Z,53833.88
2023-05-10T14:03:18.117Z,53833.88
2023-05-10T14:05:45.895Z,53817.34
2023-05-10T14:08:14.140Z,53842.16
2023-05-10T14:10:40.605Z,53829.75
2023-05-10T14:13:07.356Z,53873.16
2023-05-10T14:15:33.696Z,53895.91
2023-05-10T14:18:00.450Z,53891.78
2023-05-10T14:20:26.833Z,53939.34
2023-05-10T14:22:53.146Z,53910.38
2023-05-10T14:25:19.858Z,53908.31
2023-05-10T14:27:46.400Z,53910.38
2023-05-10T14:30:12.904Z,53860.75
2023-05-10T14:32:39.274Z,53889.72
2023-05-10T14:35:07.010Z,53881.44
2023-05-10T14:37:33.435Z,53897.97
2023-05-10T14:39:59.804Z,53916.59
2023-05-10T14:42:26.693Z,53873.16
2023-05-10T14:44:53.549Z,53887.63
2023-05-10T14:47:20.033Z,53873.16
2023-05-10T14:49:46.375Z,53850.41
2023-05-10T14:52:13.442Z,53885.56
2023-05-10T14:54:39.948Z,53881.44
2023-05-10T14:57:07.415Z,53881.44
2023-05-10T14:59:33.772Z,53869.03
2023-05-10T15:02:00.642Z,53873.16
2023-05-10T15:04:28.883Z,53893.84
2023-05-10T15:06:59.959Z,53877.31
2023-05-10T15:09:26.815Z,53914.53
2023-05-10T15:11:53.192Z,53887.63
2023-05-10T15:14:19.679Z,53918.66
2023-05-10T15:16:45.959Z,53964.16
2023-05-10T15:19:12.549Z,53960.00
2023-05-10T15:21:39.838Z,53976.53
2023-05-10T15:24:09.390Z,54059.25
2023-05-10T15:26:35.689Z,54247.44
2023-05-10T15:29:02.041Z,54168.84
2023-05-10T15:31:28.567Z,54222.59
2023-05-10T15:33:58.015Z,54501.78
2023-05-10T15:36:24.334Z,54474.88
2023-05-10T15:38:50.694Z,54613.44
2023-05-10T15:41:17.053Z,54859.53
2023-05-10T15:43:43.433Z,55010.53
2023-05-10T15:46:09.742Z,55695.16
2023-05-10T15:48:36.499Z,59480.41
2023-05-10T15:51:02.810Z,67671.69
2023-05-10T15:53:29.098Z,80681.25
2023-05-10T15:55:55.400Z,96432.09
2023-05-10T15:58:21.799Z,102856.84
2023-05-10T16:00:48.174Z,107145.69
2023-05-10T16:03:14.568Z,110365.28
2023-05-10T16:05:41.064Z,112781.63
2023-05-10T16:08:07.426Z,115199.44
2023-05-10T16:10:33.886Z,116812.09
2023-05-10T16:13:00.564Z,117887.56
2023-05-10T16:15:27.289Z,118156.47
2023-05-10T16:17:53.771Z,119232.28
2023-05-10T16:20:20.464Z,119232.28
2023-05-10T16:22:46.828Z,119501.28
2023-05-10T16:25:13.689Z,119232.28
2023-05-10T16:27:40.180Z,119232.28
2023-05-10T16:30:06.757Z,119501.28
2023-05-10T16:32:33.134Z,119501.28
2023-05-10T16:35:00.275Z,119232.28
2023-05-10T16:37:26.597Z,119770.28
2023-05-10T16:39:52.912Z,119770.28
2023-05-10T16:42:19.222Z,119770.28
2023-05-10T16:44:45.561Z,119770.28
2023-05-10T16:47:12.119Z,119770.28
2023-05-10T16:49:38.475Z,120039.31
2023-05-10T16:52:04.783Z,120039.31
2023-05-10T16:54:31.108Z,120039.31
2023-05-10T16:56:57.730Z,120039.31
2023-05-10T16:59:24.244Z,120041.41
2023-05-10T17:01:50.648Z,120041.41
2023-05-10T17:04:17.945Z,120041.41
2023-05-10T17:06:44.394Z,120041.41
2023-05-10T17:09:15.875Z,120041.41
2023-05-10T17:11:43.904Z,120041.41
2023-05-10T17:14:10.399Z,120041.41
2023-05-10T17:16:36.862Z,120041.41
2023-05-10T17:19:03.505Z,120041.41
2023-05-10T17:21:30.121Z,120041.41
2023-05-10T17:23:56.577Z,120041.41
2023-05-10T17:26:23.609Z,120041.41
2023-05-10T17:28:49.976Z,120041.41
2023-05-10T17:31:16.372Z,120041.41
2023-05-10T17:33:43.001Z,120041.41
2023-05-10T17:36:09.411Z,120041.41
2023-05-10T17:38:36.283Z,120041.41
2023-05-10T17:41:03.566Z,120041.41
2023-05-10T17:43:29.927Z,120041.41
2023-05-10T17:45:56.287Z,120041.41
2023-05-10T17:48:23.050Z,120041.41
2023-05-10T17:50:50.035Z,120041.41
2023-05-10T17:53:16.341Z,120041.41
2023-05-10T17:55:43.654Z,120041.41
2023-05-10T17:58:10.990Z,120041.41
2023-05-10T18:00:37.803Z,120041.41
2023-05-10T18:03:05.084Z,120041.41
2023-05-10T18:05:32.216Z,120041.41
2023-05-10T18:07:59.540Z,120041.41
2023-05-10T18:10:26.019Z,120041.41
2023-05-10T18:12:56.264Z,120041.41
2023-05-10T18:15:23.242Z,120041.41
2023-05-10T18:17:49.716Z,120041.41
2023-05-10T18:20:16.043Z,120041.41
2023-05-10T18:22:43.136Z,120041.41
2023-05-10T18:25:09.633Z,120041.41
2023-05-10T18:27:36.171Z,120041.41
2023-05-10T18:30:02.518Z,120041.41
2023-05-10T18:32:29.311Z,120041.41
2023-05-10T18:34:56.796Z,120041.41
2023-05-10T18:37:23.120Z,120041.41
2023-05-10T18:39:49.827Z,120041.41
2023-05-10T18:42:16.380Z,120041.41
2023-05-10T18:44:42.700Z,120041.41
2023-05-10T18:47:09.330Z,120041.41
2023-05-10T18:49:35.647Z,120041.41
2023-05-10T18:52:01.964Z,120041.41
2023-05-10T18:54:28.931Z,120041.41
2023-05-10T18:56:57.245Z,120041.41
2023-05-10T18:59:23.590Z,120041.41
2023-05-10T19:01:51.317Z,120041.41
2023-05-10T19:04:17.887Z,120041.41
2023-05-10T19:06:44.285Z,120041.41
2023-05-10T19:09:10.667Z,120041.41
2023-05-10T19:11:37.022Z,120041.41
2023-05-10T19:14:05.573Z,120041.41
2023-05-10T19:16:35.844Z,120041.41
2023-05-10T19:19:02.897Z,120041.41
2023-05-10T19:21:30.179Z,120041.41
2023-05-10T19:23:58.425Z,120041.41
2023-05-10T19:26:24.859Z,120041.41
2023-05-10T19:28:51.877Z,120041.41
2023-05-10T19:31:18.404Z,120041.41
2023-05-10T19:33:44.850Z,120041.41
2023-05-10T19:36:11.177Z,120041.41
2023-05-10T19:38:37.667Z,120041.41
2023-05-10T19:41:04.032Z,120041.41
2023-05-10T19:43:34.019Z,120041.41
2023-05-10T19:46:01.825Z,120041.41
2023-05-10T19:48:28.271Z,120041.41
2023-05-10T19:50:55.930Z,120041.41
2023-05-10T19:53:22.428Z,119597.94
2023-05-10T19:55:48.893Z,118744.75
2023-05-10T19:58:15.212Z,118276.22
2023-05-10T20:00:41.533Z,118112.34
2023-05-10T20:03:09.265Z,117721.59
2023-05-10T20:05:35.814Z,117255.25
2023-05-10T20:08:02.167Z,116885.59
2023-05-10T20:10:28.627Z,117104.03
2023-05-10T20:12:54.984Z,117030.53
2023-05-10T20:15:21.822Z,116371.06
2023-05-10T20:17:48.824Z,115753.72
2023-05-10T20:20:18.170Z,115178.44
2023-05-10T20:22:44.740Z,114989.50
2023-05-10T20:25:11.217Z,114983.19
2023-05-10T20:27:37.635Z,114737.59
2023-05-10T20:30:05.945Z,114918.13
2023-05-10T20:32:32.427Z,114565.47
2023-05-10T20:34:58.742Z,114445.81
2023-05-10T20:37:25.183Z,114319.88
2023-05-10T20:39:51.575Z,113883.31
2023-05-10T20:42:18.000Z,113558.03
2023-05-10T20:44:44.304Z,113751.09
2023-05-10T20:47:10.610Z,113826.66
2023-05-10T20:49:37.923Z,113977.75
2023-05-10T20:52:05.067Z,113671.34
2023-05-10T20:54:31.409Z,113549.63
2023-05-10T20:56:57.730Z,113900.09
2023-05-10T20:59:24.079Z,114200.25
2023-05-10T21:01:50.680Z,114336.66
2023-05-10T21:04:17.014Z,114332.47
2023-05-10T21:06:43.819Z,114107.88
2023-05-10T21:09:10.205Z,114158.25
2023-05-10T21:11:36.648Z,114357.66
2023-05-10T21:14:02.984Z,114424.81
2023-05-10T21:16:29.348Z,114401.72
2023-05-10T21:18:55.800Z,114133.06
2023-05-10T21:21:22.214Z,114269.50
2023-05-10T21:23:48.521Z,114300.97
2023-05-10T21:26:15.394Z,114508.78
2023-05-10T21:28:44.718Z,114439.53
2023-05-10T21:31:11.313Z,114506.69
2023-05-10T21:33:37.701Z,114647.31
2023-05-10T21:36:04.345Z,114981.09
2023-05-10T21:38:31.310Z,115136.44
2023-05-10T21:40:57.620Z,115289.72
2023-05-10T21:43:23.945Z,115317.00
2023-05-10T21:45:50.311Z,115447.16
2023-05-10T21:48:16.624Z,115224.63
2023-05-10T21:50:43.790Z,114867.75
2023-05-10T21:53:12.531Z,114699.81
2023-05-10T21:55:38.967Z,114741.78
2023-05-10T21:58:06.014Z,114492.00
2023-05-10T22:00:34.181Z,114464.72
2023-05-10T22:03:00.820Z,114168.75
2023-05-10T22:05:27.256Z,113998.75
2023-05-10T22:07:53.573Z,113954.69
2023-05-10T22:10:20.130Z,113717.53
2023-05-10T22:12:46.569Z,113513.97
2023-05-10T22:15:12.991Z,113144.63
2023-05-10T22:17:39.757Z,113129.94
2023-05-10T22:20:07.264Z,112559.25
2023-05-10T22:22:33.580Z,112714.50
2023-05-10T22:24:59.898Z,112641.06
2023-05-10T22:27:26.278Z,112320.06
2023-05-10T22:29:52.852Z,112364.13
2023-05-10T22:32:19.251Z,112309.56
2023-05-10T22:34:45.693Z,112255.03
2023-05-10T22:37:14.706Z,112152.22
2023-05-10T22:39:41.026Z,112374.63
2023-05-10T22:42:08.014Z,112020.06
2023-05-10T22:44:34.330Z,112171.13
2023-05-10T22:47:00.702Z,111711.72
2023-05-10T22:49:27.040Z,111911.00
2023-05-10T22:51:53.352Z,112129.16
2023-05-10T22:54:19.678Z,112196.28
2023-05-10T22:56:45.989Z,112391.41
2023-05-10T22:59:12.273Z,112269.72
2023-05-10T23:01:38.605Z,112242.44
2023-05-10T23:04:05.085Z,111816.59
2023-05-10T23:06:31.378Z,112158.53
2023-05-10T23:08:57.784Z,112311.69
2023-05-10T23:11:24.218Z,112437.56
2023-05-10T23:13:51.345Z,112657.84
2023-05-10T23:16:18.194Z,112525.66
2023-05-10T23:18:44.613Z,112410.28
2023-05-10T23:21:11.088Z,112517.28
2023-05-10T23:23:37.513Z,112320.06
2023-05-10T23:26:05.112Z,112229.84
2023-05-10T23:28:31.748Z,112538.25
2023-05-10T23:30:58.385Z,112278.09
2023-05-10T23:33:24.879Z,112567.63
2023-05-10T23:35:51.467Z,112290.69
2023-05-10T23:38:17.794Z,112401.88
2023-05-10T23:40:47.354Z,112546.66
2023-05-10T23:43:16.062Z,112555.03
2023-05-10T23:45:42.385Z,113119.44
2023-05-10T23:48:09.531Z,112880.25
2023-05-10T23:50:37.109Z,113108.97
2023-05-10T23:53:03.427Z,113461.50
2023-05-10T23:55:29.723Z,113396.44
2023-05-10T23:57:56.042Z,113444.72
